Time;durP1;ratioP1;P1;durP2;ratioP2;P2;SDS_P1;SDS_P2;PMS_P1;PMS_P2;Temp;Humidity;BMP_temperature;BMP_pressure;BME280_temperature;BME280_humidity;BME280_pressure;Samples;Min_cycle;Max_cycle;Signal;HPM_P1;HPM_P2
2023/08/31 00:00:35;;;;;;;5.77;0.80;;;12.70;99.90;;;;;;5035972;28;20218;-89
2023/08/31 00:03:02;;;;;;;0.40;0.40;;;12.70;99.90;;;;;;5019517;28;20241;-88
2023/08/31 00:05:30;;;;;;;0.40;0.40;;;12.60;99.90;;;;;;5037425;28;20226;-87
2023/08/31 00:07:56;;;;;;;0.50;0.40;;;12.50;99.90;;;;;;4991371;28;20841;-84
2023/08/31 00:10:23;;;;;;;0.33;0.33;;;12.40;99.90;;;;;;5012026;28;20571;-87
2023/08/31 00:12:49;;;;;;;0.20;0.20;;;12.40;99.90;;;;;;5017000;28;20272;-87
2023/08/31 00:15:15;;;;;;;0.10;0.10;;;12.20;99.90;;;;;;5018837;28;21114;-87
2023/08/31 00:17:40;;;;;;;0.57;0.23;;;12.10;99.90;;;;;;5022197;28;20194;-87
2023/08/31 00:20:11;;;;;;;0.33;0.33;;;12.00;99.90;;;;;;5005940;28;20305;-85
2023/08/31 00:22:37;;;;;;;0.47;0.47;;;11.90;99.90;;;;;;4998447;28;20371;-87
2023/08/31 00:25:05;;;;;;;2.10;0.40;;;11.80;99.90;;;;;;5013635;28;20741;-87
2023/08/31 00:27:31;;;;;;;0.20;0.20;;;11.60;99.90;;;;;;5007797;28;20214;-84
2023/08/31 00:29:58;;;;;;;0.67;0.67;;;11.50;99.90;;;;;;5026023;28;20304;-84
2023/08/31 00:32:24;;;;;;;1.03;0.80;;;11.40;99.90;;;;;;5006666;28;20276;-85
2023/08/31 00:34:50;;;;;;;0.20;0.20;;;11.40;99.90;;;;;;5019862;28;20214;-88
2023/08/31 00:37:16;;;;;;;0.43;0.43;;;11.40;99.90;;;;;;5032657;28;20223;-86
2023/08/31 00:39:45;;;;;;;1.80;1.00;;;11.40;99.90;;;;;;5043269;28;20254;-87
2023/08/31 00:42:14;;;;;;;0.30;0.30;;;11.40;99.90;;;;;;5040952;28;21241;-85
2023/08/31 00:44:39;;;;;;;0.77;0.50;;;11.40;99.90;;;;;;4991513;28;20183;-88
2023/08/31 00:47:05;;;;;;;0.30;0.30;;;11.40;99.90;;;;;;5020752;28;20217;-88
2023/08/31 00:49:31;;;;;;;0.40;0.40;;;11.40;99.90;;;;;;5013798;28;20229;-87
2023/08/31 00:51:57;;;;;;;0.60;0.40;;;11.40;99.90;;;;;;4978914;28;20218;-86
2023/08/31 00:54:23;;;;;;;0.30;0.30;;;11.40;99.90;;;;;;5040453;28;20186;-86
2023/08/31 00:56:53;;;;;;;1.03;0.93;;;11.50;99.90;;;;;;5006129;28;20187;-89
2023/08/31 00:59:20;;;;;;;0.20;0.20;;;11.50;99.90;;;;;;5056058;28;20209;-89
2023/08/31 01:02:15;;;;;;;2.20;0.70;;;11.60;99.90;;;;;;5012438;28;20234;-85
2023/08/31 01:04:53;;;;;;;0.50;0.47;;;11.70;99.90;;;;;;5046216;28;20250;-87
2023/08/31 01:07:48;;;;;;;0.80;0.63;;;11.70;99.90;;;;;;5032483;28;20214;-87
2023/08/31 01:10:32;;;;;;;0.10;0.10;;;11.80;99.90;;;;;;4963424;28;20860;-87
2023/08/31 01:13:21;;;;;;;2.03;0.60;;;11.80;99.90;;;;;;5041459;28;20206;-88
2023/08/31 01:15:56;;;;;;;10.63;1.13;;;11.90;99.90;;;;;;5041486;28;20219;-87
2023/08/31 01:18:25;;;;;;;0.67;0.20;;;11.90;99.90;;;;;;5042217;28;20177;-85
2023/08/31 01:21:28;;;;;;;0.20;0.20;;;12.00;99.90;;;;;;5026224;28;20550;-88
2023/08/31 01:23:58;;;;;;;0.50;0.50;;;12.00;99.90;;;;;;5004492;28;20240;-88
2023/08/31 01:26:25;;;;;;;5.80;0.67;;;12.10;99.90;;;;;;4988330;28;20225;-85
2023/08/31 01:28:52;;;;;;;3.50;0.83;;;12.10;99.90;;;;;;5018681;28;20421;-88
2023/08/31 01:31:18;;;;;;;0.23;0.23;;;12.10;99.90;;;;;;5014364;28;20222;-86
2023/08/31 01:33:44;;;;;;;2.23;0.60;;;12.20;99.90;;;;;;5007417;28;20213;-87
2023/08/31 01:36:26;;;;;;;0.83;0.77;;;12.20;99.90;;;;;;5023806;28;20892;-88
2023/08/31 01:39:21;;;;;;;1.50;0.83;;;12.30;99.90;;;;;;5021257;28;20222;-89
2023/08/31 01:41:55;;;;;;;0.53;0.53;;;12.30;99.90;;;;;;5016482;28;20284;-87
2023/08/31 01:44:21;;;;;;;0.50;0.33;;;12.30;99.90;;;;;;5004226;28;20214;-88
2023/08/31 01:46:52;;;;;;;0.80;0.70;;;12.40;99.90;;;;;;5017825;28;20238;-87
2023/08/31 01:49:19;;;;;;;0.50;0.30;;;12.40;99.90;;;;;;5032174;28;20210;-87
2023/08/31 01:51:44;;;;;;;0.20;0.20;;;12.40;99.90;;;;;;5009412;28;20276;-88
2023/08/31 01:54:10;;;;;;;0.80;0.33;;;12.40;99.90;;;;;;5024229;28;20675;-86
2023/08/31 01:56:36;;;;;;;1.90;0.70;;;12.40;99.90;;;;;;5004629;28;20266;-87
2023/08/31 01:59:02;;;;;;;2.37;0.90;;;12.40;99.90;;;;;;5019764;28;21402;-87
2023/08/31 02:01:29;;;;;;;0.40;0.20;;;12.40;99.90;;;;;;5013312;28;20329;-88
2023/08/31 02:03:54;;;;;;;9.20;0.83;;;12.40;99.90;;;;;;4971736;28;21067;-87
2023/08/31 02:06:20;;;;;;;0.27;0.27;;;12.40;99.90;;;;;;5020329;28;20182;-84
2023/08/31 02:08:47;;;;;;;2.60;0.83;;;12.50;99.90;;;;;;4971405;28;20201;-84
2023/08/31 02:11:13;;;;;;;0.23;0.23;;;12.50;99.90;;;;;;4988343;28;20582;-85
2023/08/31 02:13:41;;;;;;;0.47;0.33;;;12.50;99.90;;;;;;5011581;28;20249;-87
2023/08/31 02:16:07;;;;;;;0.17;0.17;;;12.60;99.90;;;;;;5044724;28;20213;-88
2023/08/31 02:18:33;;;;;;;1.63;0.30;;;12.60;99.90;;;;;;5020315;28;21074;-88
2023/08/31 02:20:59;;;;;;;0.50;0.50;;;12.70;99.90;;;;;;5005167;28;20240;-88
2023/08/31 02:23:24;;;;;;;0.00;0.00;;;12.80;99.90;;;;;;5021694;28;20694;-88
2023/08/31 02:25:50;;;;;;;3.10;1.17;;;12.80;99.90;;;;;;5026826;28;20821;-86
2023/08/31 02:28:17;;;;;;;0.23;0.13;;;12.90;99.90;;;;;;5013088;28;20217;-87
2023/08/31 02:30:46;;;;;;;4.53;1.33;;;12.90;99.90;;;;;;5035918;28;20211;-88
2023/08/31 02:33:11;;;;;;;0.10;0.10;;;12.90;99.90;;;;;;5036678;28;20224;-86
2023/08/31 02:35:37;;;;;;;0.30;0.30;;;12.90;99.90;;;;;;5023977;28;20178;-85
2023/08/31 02:38:03;;;;;;;0.80;0.47;;;12.80;99.90;;;;;;4990783;28;20218;-86
2023/08/31 02:40:29;;;;;;;1.70;0.60;;;12.70;99.90;;;;;;5014723;28;20226;-87
2023/08/31 02:42:54;;;;;;;5.77;0.57;;;12.60;99.90;;;;;;4999985;28;20235;-88
2023/08/31 02:45:20;;;;;;;0.50;0.50;;;12.60;99.90;;;;;;4987916;28;20206;-85
2023/08/31 02:47:46;;;;;;;0.60;0.60;;;12.50;99.90;;;;;;5040593;28;20190;-86
2023/08/31 02:50:12;;;;;;;2.13;0.97;;;12.50;99.90;;;;;;5023899;28;20236;-85
2023/08/31 02:52:39;;;;;;;0.67;0.67;;;12.40;99.90;;;;;;4981619;28;20670;-86
2023/08/31 02:55:05;;;;;;;0.87;0.20;;;12.40;99.90;;;;;;5032658;28;20248;-88
2023/08/31 02:57:31;;;;;;;0.30;0.30;;;12.40;99.90;;;;;;5005815;28;20218;-87
2023/08/31 02:59:56;;;;;;;0.30;0.30;;;12.30;99.90;;;;;;5023730;28;20205;-88
2023/08/31 03:02:22;;;;;;;0.33;0.33;;;12.30;99.90;;;;;;5004476;28;20468;-85
2023/08/31 03:04:49;;;;;;;2.10;0.80;;;12.30;99.90;;;;;;5000105;28;20236;-84
2023/08/31 03:07:15;;;;;;;3.30;0.30;;;12.20;99.90;;;;;;5014115;28;20222;-88
2023/08/31 03:09:41;;;;;;;0.60;0.60;;;12.30;99.90;;;;;;5006858;28;20290;-89
2023/08/31 03:12:07;;;;;;;2.97;1.17;;;12.20;99.90;;;;;;5039911;28;20263;-87
2023/08/31 03:14:32;;;;;;;3.33;0.87;;;12.20;99.90;;;;;;4985365;28;20240;-86
2023/08/31 03:16:58;;;;;;;5.00;1.20;;;12.20;99.90;;;;;;5017060;28;20221;-87
2023/08/31 03:19:24;;;;;;;1.57;0.43;;;12.20;99.90;;;;;;5044756;28;20621;-85
2023/08/31 03:21:50;;;;;;;1.70;1.40;;;12.20;99.90;;;;;;5024230;28;20230;-88
2023/08/31 03:24:16;;;;;;;0.83;0.57;;;12.30;99.90;;;;;;5005658;28;20248;-86
2023/08/31 03:26:42;;;;;;;2.00;0.93;;;12.20;99.90;;;;;;5023578;28;20185;-87
2023/08/31 03:29:08;;;;;;;0.50;0.50;;;12.30;99.90;;;;;;5006505;28;20483;-87
2023/08/31 03:31:33;;;;;;;11.77;0.80;;;12.30;99.90;;;;;;5013671;28;20222;-88
2023/08/31 03:33:59;;;;;;;3.20;1.37;;;12.30;99.90;;;;;;4998354;28;20214;-88
2023/08/31 03:36:25;;;;;;;2.53;1.13;;;12.20;99.90;;;;;;4972157;28;20183;-85
2023/08/31 03:38:50;;;;;;;1.63;0.70;;;12.20;99.90;;;;;;5005434;28;20178;-85
2023/08/31 03:41:16;;;;;;;5.27;1.10;;;12.20;99.90;;;;;;5004600;28;20313;-85
2023/08/31 03:43:42;;;;;;;3.50;1.27;;;12.20;99.90;;;;;;4999199;28;20214;-89
2023/08/31 03:46:08;;;;;;;2.10;1.30;;;12.10;99.90;;;;;;4997592;28;20242;-88
2023/08/31 03:48:34;;;;;;;1.00;0.80;;;12.10;99.90;;;;;;4989507;28;20206;-87
2023/08/31 03:50:59;;;;;;;1.17;0.90;;;12.10;99.90;;;;;;5022929;28;20213;-88
2023/08/31 03:53:25;;;;;;;1.63;0.90;;;12.10;99.90;;;;;;5001784;28;20214;-84
2023/08/31 03:55:51;;;;;;;1.43;0.93;;;12.00;99.90;;;;;;4999516;28;20308;-88
2023/08/31 03:58:17;;;;;;;0.47;0.47;;;12.00;99.90;;;;;;5013547;28;20637;-84
2023/08/31 04:00:42;;;;;;;3.57;0.70;;;12.00;99.90;;;;;;4974295;28;20635;-86
2023/08/31 04:03:09;;;;;;;1.17;1.00;;;12.10;99.90;;;;;;5008814;28;20217;-84
2023/08/31 04:05:35;;;;;;;0.53;0.50;;;12.10;99.90;;;;;;5006806;28;20575;-84
2023/08/31 04:08:02;;;;;;;4.63;0.83;;;12.10;99.90;;;;;;5005635;28;20230;-86
2023/08/31 04:10:29;;;;;;;0.30;0.30;;;12.00;99.90;;;;;;5016774;28;20257;-86
2023/08/31 04:12:55;;;;;;;4.13;0.30;;;12.00;99.90;;;;;;5020223;28;20738;-85
2023/08/31 04:15:21;;;;;;;1.80;0.80;;;12.00;99.90;;;;;;5008410;28;20250;-88
2023/08/31 04:17:47;;;;;;;0.30;0.30;;;11.90;99.90;;;;;;5009176;28;20190;-86
2023/08/31 04:20:13;;;;;;;0.40;0.40;;;11.90;99.90;;;;;;5025963;28;20269;-88
2023/08/31 04:22:38;;;;;;;0.43;0.30;;;11.90;99.90;;;;;;5017806;28;20252;-87
2023/08/31 04:25:04;;;;;;;4.20;0.33;;;11.90;99.90;;;;;;5036030;28;20226;-87
2023/08/31 04:27:31;;;;;;;0.23;0.23;;;11.90;99.90;;;;;;5025649;28;20241;-88
2023/08/31 04:30:03;;;;;;;1.27;0.40;;;12.00;99.90;;;;;;5009753;28;20196;-85
2023/08/31 04:32:32;;;;;;;0.27;0.27;;;11.90;99.90;;;;;;5006333;28;20276;-88
2023/08/31 04:34:58;;;;;;;0.90;0.67;;;11.90;99.90;;;;;;5037293;28;21210;-89
2023/08/31 04:37:23;;;;;;;0.37;0.37;;;11.90;99.90;;;;;;4998637;28;20222;-84
2023/08/31 04:39:49;;;;;;;4.83;0.70;;;11.80;99.90;;;;;;5028219;28;20230;-86
2023/08/31 04:42:16;;;;;;;0.60;0.60;;;11.70;99.90;;;;;;5024329;28;20675;-85
2023/08/31 04:44:43;;;;;;;0.40;0.40;;;11.70;99.90;;;;;;4989916;28;20206;-86
2023/08/31 04:47:08;;;;;;;0.60;0.60;;;11.70;99.90;;;;;;5039201;28;20237;-86
2023/08/31 04:49:34;;;;;;;0.40;0.40;;;11.70;99.90;;;;;;5013778;28;20727;-88
2023/08/31 04:52:00;;;;;;;0.23;0.23;;;11.70;99.90;;;;;;4996049;28;20248;-85
2023/08/31 04:54:25;;;;;;;0.53;0.37;;;11.80;99.90;;;;;;5005669;28;20186;-84
2023/08/31 04:56:51;;;;;;;0.70;0.67;;;11.80;99.90;;;;;;5023329;28;20282;-84
2023/08/31 04:59:17;;;;;;;0.40;0.40;;;11.80;99.90;;;;;;5007146;28;20224;-89
2023/08/31 05:01:43;;;;;;;0.67;0.67;;;11.90;99.90;;;;;;5013281;28;20265;-87
2023/08/31 05:04:08;;;;;;;1.43;1.33;;;11.90;99.90;;;;;;5002431;28;20206;-87
2023/08/31 05:06:34;;;;;;;0.73;0.60;;;12.00;99.90;;;;;;5025953;28;20218;-88
2023/08/31 05:09:00;;;;;;;2.07;0.50;;;12.00;99.90;;;;;;5025784;28;20190;-86
2023/08/31 05:11:26;;;;;;;3.07;0.90;;;12.10;99.90;;;;;;5006071;28;20296;-88
2023/08/31 05:13:52;;;;;;;2.27;1.07;;;12.10;99.90;;;;;;4983960;28;20222;-86
2023/08/31 05:16:17;;;;;;;0.50;0.40;;;12.20;99.90;;;;;;5015342;28;20569;-86
2023/08/31 05:18:43;;;;;;;0.97;0.93;;;12.30;99.90;;;;;;4972337;28;20580;-86
2023/08/31 05:21:09;;;;;;;0.63;0.63;;;12.50;99.90;;;;;;5038288;28;20206;-87
2023/08/31 05:23:34;;;;;;;1.57;0.83;;;12.70;99.90;;;;;;5022794;28;20683;-87
2023/08/31 05:26:01;;;;;;;0.77;0.50;;;13.00;99.90;;;;;;5005554;28;21184;-87
2023/08/31 05:28:27;;;;;;;4.80;0.60;;;13.30;99.90;;;;;;5031360;28;20234;-86
2023/08/31 05:30:56;;;;;;;0.50;0.50;;;13.30;99.90;;;;;;5043744;28;20343;-88
2023/08/31 05:33:22;;;;;;;7.40;1.43;;;13.50;99.90;;;;;;5023691;28;20185;-89
2023/08/31 05:35:48;;;;;;;0.60;0.60;;;13.50;99.90;;;;;;5023088;28;20187;-89
2023/08/31 05:38:14;;;;;;;0.50;0.50;;;13.60;99.90;;;;;;5039483;28;20210;-87
2023/08/31 05:40:45;;;;;;;2.23;0.80;;;13.70;99.90;;;;;;5029140;28;20226;-84
2023/08/31 05:43:11;;;;;;;0.50;0.50;;;13.70;99.90;;;;;;5013974;28;20217;-89
2023/08/31 05:45:37;;;;;;;1.13;0.90;;;13.80;99.90;;;;;;5020433;28;20222;-89
2023/08/31 05:48:02;;;;;;;4.87;0.80;;;14.00;99.90;;;;;;5021034;28;20584;-86
2023/08/31 05:50:29;;;;;;;0.73;0.70;;;14.00;99.90;;;;;;5040280;28;20337;-87
2023/08/31 05:52:55;;;;;;;5.30;0.73;;;14.10;99.90;;;;;;5009031;28;20660;-86
2023/08/31 05:55:21;;;;;;;6.73;1.30;;;14.20;99.90;;;;;;5014290;28;20218;-89
2023/08/31 05:57:47;;;;;;;1.13;0.70;;;14.30;99.90;;;;;;5018470;28;20222;-85
2023/08/31 06:00:13;;;;;;;0.60;0.50;;;14.40;99.90;;;;;;4971738;28;20197;-89
2023/08/31 06:02:39;;;;;;;0.37;0.37;;;14.60;99.90;;;;;;5007675;28;20414;-89
2023/08/31 06:05:05;;;;;;;0.97;0.53;;;15.10;99.90;;;;;;5008013;28;20706;-89
2023/08/31 06:07:31;;;;;;;0.50;0.50;;;17.10;99.90;;;;;;5014772;28;20684;-88
2023/08/31 06:09:57;;;;;;;1.03;0.60;;;19.30;99.90;;;;;;5016299;28;20235;-86
2023/08/31 06:12:23;;;;;;;0.73;0.30;;;20.30;99.90;;;;;;5023655;28;20183;-90
2023/08/31 06:14:49;;;;;;;0.73;0.60;;;21.20;99.90;;;;;;5023700;28;20213;-89
2023/08/31 06:17:15;;;;;;;0.23;0.23;;;22.00;99.90;;;;;;5039658;28;20225;-84
2023/08/31 06:19:41;;;;;;;1.57;0.87;;;21.80;99.90;;;;;;5016552;28;20226;-86
2023/08/31 06:22:08;;;;;;;0.30;0.30;;;22.70;99.90;;;;;;4998075;28;20242;-84
2023/08/31 06:24:33;;;;;;;0.40;0.40;;;23.20;99.90;;;;;;5024031;28;20229;-85
2023/08/31 06:27:00;;;;;;;1.40;0.50;;;23.10;99.90;;;;;;5024332;28;20182;-85
2023/08/31 06:29:26;;;;;;;3.17;0.53;;;22.30;99.90;;;;;;4987759;28;20214;-83
2023/08/31 06:31:51;;;;;;;0.20;0.20;;;20.90;99.90;;;;;;5017463;28;20979;-87
2023/08/31 06:34:17;;;;;;;0.37;0.37;;;19.80;99.90;;;;;;5013644;28;20214;-86
2023/08/31 06:36:43;;;;;;;0.80;0.30;;;18.90;99.90;;;;;;5008166;28;20287;-87
2023/08/31 06:39:09;;;;;;;0.93;0.53;;;18.30;99.90;;;;;;5006923;28;20202;-87
2023/08/31 06:41:34;;;;;;;0.30;0.30;;;17.90;99.90;;;;;;5021203;28;20261;-85
2023/08/31 06:44:05;;;;;;;1.07;0.60;;;17.60;99.90;;;;;;5020875;28;20225;-87
2023/08/31 06:46:37;;;;;;;0.57;0.20;;;17.40;99.90;;;;;;5031905;28;20296;-88
2023/08/31 06:49:04;;;;;;;0.33;0.30;;;17.20;99.90;;;;;;5015883;28;20745;-84
2023/08/31 06:51:31;;;;;;;1.40;0.43;;;17.50;99.90;;;;;;5006749;28;20209;-88
2023/08/31 06:54:04;;;;;;;0.37;0.37;;;17.70;99.90;;;;;;5055816;28;20182;-84
2023/08/31 06:56:30;;;;;;;4.77;0.50;;;17.90;99.90;;;;;;4988262;28;20206;-87
2023/08/31 06:58:56;;;;;;;1.70;0.40;;;18.60;99.90;;;;;;5000689;28;20974;-88
2023/08/31 07:01:21;;;;;;;0.20;0.20;;;20.10;99.90;;;;;;5012919;28;20732;-85
2023/08/31 07:03:48;;;;;;;0.67;0.67;;;21.60;99.90;;;;;;5024886;28;20230;-86
2023/08/31 07:06:14;;;;;;;1.90;0.40;;;22.50;99.90;;;;;;5003671;28;20636;-84
2023/08/31 07:08:40;;;;;;;0.77;0.63;;;23.40;99.90;;;;;;5002048;28;20195;-85
2023/08/31 07:11:06;;;;;;;2.00;0.70;;;24.50;99.90;;;;;;4998802;28;20227;-85
2023/08/31 07:13:32;;;;;;;4.43;0.60;;;26.10;99.90;;;;;;4992980;28;20758;-82
2023/08/31 07:15:58;;;;;;;1.97;0.60;;;25.80;99.90;;;;;;5010931;28;20223;-86
2023/08/31 07:18:23;;;;;;;0.57;0.40;;;26.60;99.90;;;;;;4999316;28;20195;-84
2023/08/31 07:20:49;;;;;;;0.45;0.45;;;26.20;99.90;;;;;;4999051;28;20286;-86
2023/08/31 07:23:15;;;;;;;0.32;0.32;;;26.00;99.90;;;;;;5016552;28;20234;-87
2023/08/31 07:25:42;;;;;;;2.70;0.50;;;25.10;99.90;;;;;;5006862;28;20234;-83
2023/08/31 07:28:07;;;;;;;0.98;0.40;;;24.50;99.90;;;;;;4983559;28;20568;-89
2023/08/31 07:30:33;;;;;;;0.30;0.30;;;25.20;99.90;;;;;;5003425;28;20226;-88
2023/08/31 07:33:03;;;;;;;0.40;0.40;;;24.80;99.90;;;;;;5020463;28;20194;-86
2023/08/31 07:35:29;;;;;;;0.40;0.40;;;24.40;99.90;;;;;;5000328;28;20242;-86
2023/08/31 07:37:55;;;;;;;0.52;0.30;;;24.80;99.90;;;;;;4998380;28;20223;-89
2023/08/31 07:40:20;;;;;;;0.30;0.30;;;24.20;99.90;;;;;;5008862;28;20206;-83
2023/08/31 07:42:46;;;;;;;0.38;0.38;;;24.60;99.90;;;;;;5014033;28;20227;-89
2023/08/31 07:45:12;;;;;;;3.00;0.70;;;22.80;99.90;;;;;;4999437;28;20637;-88
2023/08/31 07:47:38;;;;;;;0.73;0.70;;;21.00;99.90;;;;;;4982703;28;20207;-84
2023/08/31 07:50:04;;;;;;;0.60;0.60;;;19.70;99.90;;;;;;5015288;28;20272;-86
2023/08/31 07:52:30;;;;;;;0.52;0.52;;;18.90;99.90;;;;;;5007929;28;20692;-84
2023/08/31 07:54:56;;;;;;;1.23;0.50;;;18.30;99.90;;;;;;4999447;28;20215;-87
2023/08/31 07:57:22;;;;;;;0.67;0.43;;;17.80;99.90;;;;;;5000572;28;20182;-88
2023/08/31 07:59:47;;;;;;;0.53;0.53;;;17.70;99.90;;;;;;5019301;28;20191;-86
2023/08/31 08:02:15;;;;;;;0.97;0.37;;;17.50;99.90;;;;;;5001981;28;20222;-87
2023/08/31 08:04:41;;;;;;;1.73;0.50;;;18.00;99.90;;;;;;4998521;28;20227;-85
2023/08/31 08:07:07;;;;;;;0.47;0.47;;;20.00;99.90;;;;;;5007488;28;20749;-85
2023/08/31 08:09:32;;;;;;;1.13;0.73;;;21.90;99.90;;;;;;4997881;28;20246;-84
2023/08/31 08:11:58;;;;;;;3.10;0.80;;;24.60;99.90;;;;;;4983126;28;20722;-86
2023/08/31 08:14:24;;;;;;;0.52;0.35;;;26.00;99.90;;;;;;4981869;28;20211;-88
2023/08/31 08:16:49;;;;;;;0.73;0.70;;;26.80;99.90;;;;;;5012890;28;21093;-87
2023/08/31 08:19:24;;;;;;;0.50;0.43;;;26.10;99.90;;;;;;5026380;28;20653;-86
2023/08/31 08:21:50;;;;;;;3.53;1.08;;;25.60;99.90;;;;;;4997834;28;20309;-86
2023/08/31 08:24:16;;;;;;;0.85;0.40;;;25.40;99.90;;;;;;4999630;28;20659;-84
2023/08/31 08:26:42;;;;;;;1.17;0.50;;;24.20;99.90;;;;;;5002086;28;20194;-87
2023/08/31 08:29:08;;;;;;;0.30;0.30;;;22.90;99.90;;;;;;4985304;28;21104;-86
2023/08/31 08:31:33;;;;;;;0.68;0.50;;;23.40;99.90;;;;;;4991207;28;20302;-85
2023/08/31 08:34:00;;;;;;;0.88;0.65;;;22.90;99.90;;;;;;4999144;28;20763;-84
2023/08/31 08:36:26;;;;;;;0.57;0.43;;;24.00;99.90;;;;;;5000692;28;20195;-85
2023/08/31 08:38:51;;;;;;;0.32;0.32;;;23.30;99.90;;;;;;5002418;28;20543;-86
2023/08/31 08:41:23;;;;;;;0.45;0.45;;;22.10;99.90;;;;;;5001326;28;20215;-86
2023/08/31 08:43:50;;;;;;;2.50;0.43;;;20.70;99.90;;;;;;5013002;28;20230;-85
2023/08/31 08:46:15;;;;;;;3.10;1.15;;;19.60;99.90;;;;;;5010612;28;20302;-84
2023/08/31 08:48:42;;;;;;;0.77;0.43;;;18.90;99.90;;;;;;4999756;28;20227;-84
2023/08/31 08:51:09;;;;;;;1.33;0.63;;;18.30;99.90;;;;;;5002727;28;20192;-83
2023/08/31 08:53:35;;;;;;;2.57;0.53;;;17.90;99.90;;;;;;5002140;28;20604;-86
2023/08/31 08:56:01;;;;;;;1.33;0.60;;;17.60;99.90;;;;;;5000169;28;20713;-85
2023/08/31 08:58:26;;;;;;;0.70;0.40;;;17.50;99.90;;;;;;4995243;28;20211;-86
2023/08/31 09:00:56;;;;;;;0.73;0.53;;;17.40;99.90;;;;;;5002179;28;20223;-83
2023/08/31 09:03:23;;;;;;;0.93;0.63;;;17.30;99.90;;;;;;5002361;28;20227;-85
2023/08/31 09:05:49;;;;;;;6.47;0.80;;;17.30;99.90;;;;;;5022741;28;21123;-84
2023/08/31 09:08:15;;;;;;;3.10;0.60;;;18.10;99.90;;;;;;5004866;28;20285;-84
2023/08/31 09:10:44;;;;;;;2.00;1.00;;;20.10;99.90;;;;;;4984835;28;20700;-86
2023/08/31 09:13:15;;;;;;;1.17;0.50;;;21.90;99.90;;;;;;5010659;28;20210;-85
2023/08/31 09:15:48;;;;;;;0.50;0.50;;;21.80;99.90;;;;;;5017427;28;20677;-83
2023/08/31 09:18:15;;;;;;;4.23;0.83;;;22.40;99.90;;;;;;5033891;28;20216;-86
2023/08/31 09:20:48;;;;;;;1.48;0.57;;;23.10;99.90;;;;;;5005082;28;20313;-83
2023/08/31 09:23:14;;;;;;;0.40;0.40;;;22.30;99.90;;;;;;5019213;28;20222;-88
2023/08/31 09:25:43;;;;;;;1.00;0.40;;;21.30;99.90;;;;;;5041365;28;20223;-83
2023/08/31 09:28:11;;;;;;;1.90;0.85;;;21.90;99.90;;;;;;4988982;28;20227;-86
2023/08/31 09:30:39;;;;;;;0.50;0.50;;;22.40;99.90;;;;;;5004510;28;20219;-87
2023/08/31 09:33:24;;;;;;;0.30;0.30;;;22.60;99.90;;;;;;5020669;28;20199;-86
2023/08/31 09:35:57;;;;;;;1.20;0.73;;;21.20;99.90;;;;;;5020460;28;20253;-83
2023/08/31 09:38:22;;;;;;;2.63;0.93;;;22.00;99.90;;;;;;5003297;28;20274;-86
2023/08/31 09:40:49;;;;;;;0.43;0.43;;;23.80;99.90;;;;;;5001823;28;20227;-85
2023/08/31 09:43:24;;;;;;;0.57;0.57;;;23.50;99.90;;;;;;5010641;28;20621;-86
2023/08/31 09:45:52;;;;;;;0.50;0.40;;;23.70;99.90;;;;;;5015669;28;20217;-86
2023/08/31 09:48:19;;;;;;;0.85;0.60;;;23.30;99.90;;;;;;5001831;28;20302;-84
2023/08/31 09:50:46;;;;;;;2.10;0.52;;;23.60;99.90;;;;;;5000313;28;20689;-85
2023/08/31 09:53:12;;;;;;;0.75;0.60;;;23.20;99.90;;;;;;5016795;28;20606;-87
2023/08/31 09:55:39;;;;;;;1.33;0.60;;;21.60;99.90;;;;;;4992153;28;20833;-88
2023/08/31 09:58:07;;;;;;;0.55;0.55;;;22.00;99.90;;;;;;5001060;28;20219;-83
2023/08/31 10:00:36;;;;;;;0.40;0.40;;;22.60;99.90;;;;;;5003510;28;20245;-86
2023/08/31 10:03:04;;;;;;;0.40;0.40;;;22.20;99.90;;;;;;5020325;28;20683;-85
2023/08/31 10:05:31;;;;;;;0.63;0.50;;;22.20;99.90;;;;;;4999941;28;20251;-85
2023/08/31 10:07:58;;;;;;;1.33;0.52;;;22.30;99.90;;;;;;5000674;28;20215;-85
2023/08/31 10:10:24;;;;;;;0.32;0.32;;;23.20;99.90;;;;;;5012847;28;20231;-85
2023/08/31 10:12:51;;;;;;;2.15;0.45;;;23.50;99.90;;;;;;5032773;28;20229;-85
2023/08/31 10:15:18;;;;;;;1.80;0.50;;;23.80;99.90;;;;;;4997714;28;20175;-85
2023/08/31 10:17:45;;;;;;;0.77;0.50;;;24.00;99.90;;;;;;4981992;28;20204;-86
2023/08/31 10:20:20;;;;;;;1.45;0.73;;;23.20;99.90;;;;;;4996908;28;20671;-87
2023/08/31 10:22:46;;;;;;;3.03;0.85;;;22.20;99.90;;;;;;4988507;28;20314;-85
2023/08/31 10:25:12;;;;;;;1.60;0.43;;;21.90;99.90;;;;;;5006219;28;20219;-87
2023/08/31 10:27:45;;;;;;;1.20;0.80;;;22.10;99.90;;;;;;4979963;28;20246;-85
2023/08/31 10:30:26;;;;;;;3.85;0.80;;;22.80;99.90;;;;;;5013817;28;20542;-83
2023/08/31 10:33:10;;;;;;;1.33;0.50;;;22.40;99.90;;;;;;4999390;28;20187;-83
2023/08/31 10:35:48;;;;;;;0.40;0.40;;;22.10;99.90;;;;;;4986619;28;20230;-86
2023/08/31 10:38:34;;;;;;;0.50;0.50;;;21.80;99.90;;;;;;4995322;28;20286;-87
2023/08/31 10:41:19;;;;;;;0.77;0.55;;;22.00;99.90;;;;;;5010310;28;20245;-84
2023/08/31 10:44:00;;;;;;;0.50;0.40;;;21.50;99.90;;;;;;4987787;28;20250;-84
2023/08/31 10:46:30;;;;;;;3.35;0.60;;;21.90;99.90;;;;;;5022967;28;20739;-87
2023/08/31 10:49:11;;;;;;;1.45;0.55;;;21.50;99.90;;;;;;4994210;28;20744;-85
2023/08/31 10:51:38;;;;;;;3.42;0.90;;;21.40;99.90;;;;;;4983196;28;20230;-84
2023/08/31 10:54:20;;;;;;;0.57;0.45;;;21.60;99.90;;;;;;4983694;28;20502;-87
2023/08/31 10:57:07;;;;;;;1.52;0.60;;;21.90;99.90;;;;;;4981375;28;20231;-84
2023/08/31 10:59:50;;;;;;;1.38;0.68;;;22.20;99.90;;;;;;5000062;28;20305;-84
2023/08/31 11:02:43;;;;;;;2.58;0.70;;;22.20;99.90;;;;;;4983755;28;20226;-84
2023/08/31 11:05:19;;;;;;;0.40;0.40;;;22.30;99.90;;;;;;4984238;28;20222;-85
2023/08/31 11:07:56;;;;;;;0.60;0.60;;;21.40;99.90;;;;;;4992874;28;20226;-83
2023/08/31 11:10:29;;;;;;;0.40;0.40;;;21.00;99.90;;;;;;4998811;28;20242;-87
2023/08/31 11:12:58;;;;;;;0.50;0.50;;;21.50;99.90;;;;;;4982767;28;20234;-83
2023/08/31 11:15:26;;;;;;;1.20;0.70;;;21.30;99.90;;;;;;5000973;28;20594;-82
2023/08/31 11:17:54;;;;;;;0.40;0.35;;;20.20;99.90;;;;;;5020050;28;20198;-87
2023/08/31 11:20:21;;;;;;;0.43;0.43;;;19.50;99.90;;;;;;5001011;28;20215;-84
2023/08/31 11:22:54;;;;;;;1.13;0.80;;;19.50;99.90;;;;;;4998514;28;20323;-86
2023/08/31 11:25:21;;;;;;;1.03;0.73;;;19.70;99.90;;;;;;5008733;28;20222;-85
2023/08/31 11:27:57;;;;;;;0.63;0.60;;;20.20;99.90;;;;;;5013815;28;20223;-85
2023/08/31 11:30:32;;;;;;;0.57;0.57;;;20.40;99.90;;;;;;4999585;28;20675;-86
2023/08/31 11:33:02;;;;;;;0.40;0.40;;;20.70;99.90;;;;;;5000060;28;20656;-85
2023/08/31 11:35:35;;;;;;;0.80;0.80;;;20.80;99.90;;;;;;5019024;28;20654;-87
2023/08/31 11:38:00;;;;;;;0.50;0.50;;;20.70;99.90;;;;;;5004034;28;20223;-84
2023/08/31 11:40:30;;;;;;;0.50;0.50;;;20.80;99.90;;;;;;4982574;28;20225;-86
2023/08/31 11:42:58;;;;;;;0.40;0.40;;;20.70;99.90;;;;;;4988740;28;20280;-84
2023/08/31 11:45:25;;;;;;;2.00;0.57;;;20.40;99.90;;;;;;5017537;28;20221;-87
2023/08/31 11:47:52;;;;;;;0.47;0.47;;;20.70;99.90;;;;;;4999264;28;20209;-83
2023/08/31 11:50:19;;;;;;;4.10;0.50;;;21.00;99.90;;;;;;4997991;28;20214;-84
2023/08/31 11:52:45;;;;;;;2.47;0.57;;;21.10;99.90;;;;;;4984807;28;20308;-86
2023/08/31 11:55:12;;;;;;;1.70;0.40;;;20.90;99.90;;;;;;4994683;28;20218;-84
2023/08/31 11:57:38;;;;;;;2.05;1.10;;;20.60;99.90;;;;;;5035238;28;21153;-84
2023/08/31 12:00:05;;;;;;;1.97;0.70;;;20.10;99.90;;;;;;5020088;28;20277;-86
2023/08/31 12:02:37;;;;;;;0.40;0.40;;;19.90;99.90;;;;;;5019470;28;20280;-86
2023/08/31 12:05:05;;;;;;;0.30;0.30;;;19.90;99.90;;;;;;5011452;28;20215;-88
2023/08/31 12:07:31;;;;;;;0.60;0.60;;;19.60;99.90;;;;;;5038823;28;20309;-87
2023/08/31 12:10:03;;;;;;;0.83;0.50;;;19.50;99.90;;;;;;5004807;28;21117;-83
2023/08/31 12:12:32;;;;;;;0.70;0.63;;;19.30;99.90;;;;;;5016708;28;20190;-85
2023/08/31 12:15:00;;;;;;;0.50;0.50;;;19.40;99.90;;;;;;4998678;28;20194;-87
2023/08/31 12:17:26;;;;;;;1.47;0.87;;;20.00;99.90;;;;;;4998373;28;20603;-82
2023/08/31 12:19:52;;;;;;;0.70;0.60;;;20.10;99.90;;;;;;5012752;28;20249;-85
2023/08/31 12:22:18;;;;;;;0.60;0.60;;;19.40;99.90;;;;;;5017826;28;20228;-86
2023/08/31 12:24:43;;;;;;;5.30;1.07;;;19.00;99.90;;;;;;5018293;28;20219;-85
2023/08/31 12:27:11;;;;;;;0.90;0.70;;;18.90;99.90;;;;;;4985349;28;20396;-86
2023/08/31 12:29:36;;;;;;;0.50;0.50;;;18.80;99.90;;;;;;5023388;28;20219;-87
2023/08/31 12:32:03;;;;;;;3.00;0.60;;;19.00;99.90;;;;;;5006718;28;20233;-84
2023/08/31 12:34:31;;;;;;;0.73;0.40;;;19.40;99.90;;;;;;5002648;28;20222;-85
2023/08/31 12:37:00;;;;;;;1.67;0.60;;;19.80;99.90;;;;;;5008707;28;20214;-85
2023/08/31 12:39:26;;;;;;;2.83;0.57;;;20.00;99.90;;;;;;5019917;28;20273;-86
2023/08/31 12:41:52;;;;;;;1.60;0.60;;;20.00;99.90;;;;;;5003839;28;20641;-87
2023/08/31 12:44:18;;;;;;;1.10;0.67;;;19.60;99.90;;;;;;4985374;28;20227;-85
2023/08/31 12:46:43;;;;;;;0.80;0.80;;;19.50;99.90;;;;;;5016056;28;20303;-82
2023/08/31 12:49:09;;;;;;;1.70;0.60;;;19.60;99.90;;;;;;4996445;28;20264;-87
2023/08/31 12:51:36;;;;;;;1.23;0.83;;;19.80;99.90;;;;;;5038164;28;20794;-85